Portada
METAR-TAF:

METAR-TAF

Aeroports :

Kunming, Xina

latitud: 25-01N, longitud: 102-41E, altitud: 1892 m

Observació

L'informe es va fer fa 51 minuts, a les 00:00 UTC
Vent 12 kt del Sud/Sud-Oest
Temperatura 20°C
Humitat 68%
Pressió 1018 hPa
Visibilitat 10 km o més
Núvols disperses a una alçada de 3000 ft
Núvols disperses a una alçada de 4000 ft

METAR: ZPPP 030000Z 20006MPS 9999 SCT030 SCT040 20/14 Q1018 NOSIG

Hora: 08:51 (00:51 UTC)

Pronòstic

L'informe es va fer fa 3 hores i 34 minuts, a les 21:17 UTC
Pronòstic vàlid del 03 a les 00 UTC al 03 a les 24 UTC
Vent 12 kt del Sud-Oest
Visibilitat 10 km o més
Núvols disperses a una alçada de 2600 ft
Temporalment
l' 03 a les 07 UTC al 03 a les 10 UTC
Escasses núvols a una alçada de 2600 ft, Cumulonimbus.
Núvols disperses a una alçada de 2600 ft
tempesta, pluja

TAF: ZPPP 022117Z 0300/0324 22006MPS 9999 SCT026 TX29/0308Z TN17/0323Z TEMPO 0307/0310 -TSRA FEW026CB SCT026

Observacions i pronòstics meteorològics de més de 4000 aeroports (METAR i TAF).

Les estacions disponibles són els punts grocs i vermells al mapa.

Posi el ratolí al punt desitjat per veure el nom de l'estació.

Feu clic per veure les observacions i els pronòstics meteorològics.

Per canviar el mapa: feu clic els botons verds amb una creu de color negre per apropar; al botó verd amb un guió per allunyar la imatge; o en les fletxes verdes per a mapes adjacents.


METAR-TAF: